sensor_id;sensor_type;location;lat;lon;timestamp;P1;durP1;ratioP1;P2;durP2;ratioP2
48052;SDS011;33824;51.600;5.718;2023-06-05T00:00:53;3.95;;;1.55;;
48052;SDS011;33824;51.600;5.718;2023-06-05T00:03:38;2.13;;;1.10;;
48052;SDS011;33824;51.600;5.718;2023-06-05T00:06:04;16.13;;;4.88;;
48052;SDS011;33824;51.600;5.718;2023-06-05T00:08:31;1.98;;;1.10;;
48052;SDS011;33824;51.600;5.718;2023-06-05T00:10:57;2.38;;;1.00;;
48052;SDS011;33824;51.600;5.718;2023-06-05T00:13:22;1.77;;;0.77;;
48052;SDS011;33824;51.600;5.718;2023-06-05T00:15:48;2.53;;;1.30;;
48052;SDS011;33824;51.600;5.718;2023-06-05T00:18:15;6.43;;;1.50;;
48052;SDS011;33824;51.600;5.718;2023-06-05T00:20:40;3.90;;;1.40;;
48052;SDS011;33824;51.600;5.718;2023-06-05T00:23:06;6.20;;;1.77;;
48052;SDS011;33824;51.600;5.718;2023-06-05T00:25:31;3.30;;;1.33;;
48052;SDS011;33824;51.600;5.718;2023-06-05T00:27:58;3.22;;;1.52;;
48052;SDS011;33824;51.600;5.718;2023-06-05T00:30:24;5.03;;;1.40;;
48052;SDS011;33824;51.600;5.718;2023-06-05T00:32:50;1.98;;;1.30;;
48052;SDS011;33824;51.600;5.718;2023-06-05T00:35:15;3.20;;;1.38;;
48052;SDS011;33824;51.600;5.718;2023-06-05T00:37:41;4.18;;;1.35;;
48052;SDS011;33824;51.600;5.718;2023-06-05T00:40:06;3.03;;;1.25;;
48052;SDS011;33824;51.600;5.718;2023-06-05T00:42:32;6.00;;;1.70;;
48052;SDS011;33824;51.600;5.718;2023-06-05T00:44:58;5.38;;;1.48;;
48052;SDS011;33824;51.600;5.718;2023-06-05T00:47:23;3.85;;;1.52;;
48052;SDS011;33824;51.600;5.718;2023-06-05T00:49:49;2.92;;;1.25;;
48052;SDS011;33824;51.600;5.718;2023-06-05T00:52:15;2.67;;;1.30;;
48052;SDS011;33824;51.600;5.718;2023-06-05T00:54:41;10.02;;;1.50;;
48052;SDS011;33824;51.600;5.718;2023-06-05T00:57:07;2.25;;;1.30;;
48052;SDS011;33824;51.600;5.718;2023-06-05T00:59:34;3.42;;;1.35;;
48052;SDS011;33824;51.600;5.718;2023-06-05T01:02:01;3.10;;;1.80;;
48052;SDS011;33824;51.600;5.718;2023-06-05T01:04:28;5.32;;;1.50;;
48052;SDS011;33824;51.600;5.718;2023-06-05T01:06:54;3.08;;;1.45;;
48052;SDS011;33824;51.600;5.718;2023-06-05T01:09:25;5.30;;;1.80;;
48052;SDS011;33824;51.600;5.718;2023-06-05T01:12:01;2.45;;;1.30;;
48052;SDS011;33824;51.600;5.718;2023-06-05T01:14:34;2.90;;;1.80;;
48052;SDS011;33824;51.600;5.718;2023-06-05T01:17:02;2.80;;;1.63;;
48052;SDS011;33824;51.600;5.718;2023-06-05T01:19:30;2.95;;;1.67;;
48052;SDS011;33824;51.600;5.718;2023-06-05T01:21:57;3.40;;;1.75;;
48052;SDS011;33824;51.600;5.718;2023-06-05T01:24:23;3.67;;;1.70;;
48052;SDS011;33824;51.600;5.718;2023-06-05T01:32:23;4.50;;;2.05;;
48052;SDS011;33824;51.600;5.718;2023-06-05T01:34:55;5.47;;;1.70;;
48052;SDS011;33824;51.600;5.718;2023-06-05T01:37:21;2.53;;;1.65;;
48052;SDS011;33824;51.600;5.718;2023-06-05T01:39:50;3.47;;;2.00;;
48052;SDS011;33824;51.600;5.718;2023-06-05T01:42:18;4.13;;;1.80;;
48052;SDS011;33824;51.600;5.718;2023-06-05T01:44:44;3.75;;;1.65;;
48052;SDS011;33824;51.600;5.718;2023-06-05T01:47:10;4.50;;;1.88;;
48052;SDS011;33824;51.600;5.718;2023-06-05T01:49:36;8.63;;;1.80;;
48052;SDS011;33824;51.600;5.718;2023-06-05T01:52:02;5.75;;;1.88;;
48052;SDS011;33824;51.600;5.718;2023-06-05T01:54:27;3.45;;;1.70;;
48052;SDS011;33824;51.600;5.718;2023-06-05T01:56:54;8.40;;;2.03;;
48052;SDS011;33824;51.600;5.718;2023-06-05T01:59:21;3.42;;;1.83;;
48052;SDS011;33824;51.600;5.718;2023-06-05T02:01:47;6.63;;;2.10;;
48052;SDS011;33824;51.600;5.718;2023-06-05T02:04:13;3.90;;;1.75;;
48052;SDS011;33824;51.600;5.718;2023-06-05T02:06:41;4.72;;;1.75;;
48052;SDS011;33824;51.600;5.718;2023-06-05T02:09:09;4.68;;;1.88;;
48052;SDS011;33824;51.600;5.718;2023-06-05T02:11:38;4.22;;;1.75;;
48052;SDS011;33824;51.600;5.718;2023-06-05T02:14:05;4.60;;;2.17;;
48052;SDS011;33824;51.600;5.718;2023-06-05T02:16:37;2.50;;;1.83;;
48052;SDS011;33824;51.600;5.718;2023-06-05T02:19:03;4.32;;;2.20;;
48052;SDS011;33824;51.600;5.718;2023-06-05T02:21:31;4.63;;;2.00;;
48052;SDS011;33824;51.600;5.718;2023-06-05T02:24:01;3.00;;;1.95;;
48052;SDS011;33824;51.600;5.718;2023-06-05T02:26:27;3.97;;;1.77;;
48052;SDS011;33824;51.600;5.718;2023-06-05T02:28:54;2.53;;;1.73;;
48052;SDS011;33824;51.600;5.718;2023-06-05T02:31:21;5.45;;;1.90;;
48052;SDS011;33824;51.600;5.718;2023-06-05T02:33:52;5.03;;;1.95;;
48052;SDS011;33824;51.600;5.718;2023-06-05T02:36:20;8.05;;;2.80;;
48052;SDS011;33824;51.600;5.718;2023-06-05T02:38:46;3.58;;;1.73;;
48052;SDS011;33824;51.600;5.718;2023-06-05T02:41:14;3.03;;;2.03;;
48052;SDS011;33824;51.600;5.718;2023-06-05T02:43:41;3.20;;;1.77;;
48052;SDS011;33824;51.600;5.718;2023-06-05T02:46:07;3.78;;;2.10;;
48052;SDS011;33824;51.600;5.718;2023-06-05T02:48:32;5.13;;;2.05;;
48052;SDS011;33824;51.600;5.718;2023-06-05T02:50:58;5.05;;;1.95;;
48052;SDS011;33824;51.600;5.718;2023-06-05T02:53:23;4.85;;;2.50;;
48052;SDS011;33824;51.600;5.718;2023-06-05T02:55:49;5.03;;;2.38;;
48052;SDS011;33824;51.600;5.718;2023-06-05T02:58:14;7.88;;;2.67;;
48052;SDS011;33824;51.600;5.718;2023-06-05T03:00:43;3.88;;;2.50;;
48052;SDS011;33824;51.600;5.718;2023-06-05T03:03:10;7.97;;;2.47;;
48052;SDS011;33824;51.600;5.718;2023-06-05T03:05:38;4.15;;;2.63;;
48052;SDS011;33824;51.600;5.718;2023-06-05T03:08:03;3.95;;;2.30;;
48052;SDS011;33824;51.600;5.718;2023-06-05T03:10:32;3.83;;;2.10;;
48052;SDS011;33824;51.600;5.718;2023-06-05T03:12:57;4.47;;;2.53;;
48052;SDS011;33824;51.600;5.718;2023-06-05T03:15:23;4.45;;;2.40;;
48052;SDS011;33824;51.600;5.718;2023-06-05T03:17:48;5.70;;;2.60;;
48052;SDS011;33824;51.600;5.718;2023-06-05T03:20:16;4.30;;;2.75;;
48052;SDS011;33824;51.600;5.718;2023-06-05T03:22:43;3.35;;;2.33;;
48052;SDS011;33824;51.600;5.718;2023-06-05T03:25:09;3.20;;;2.20;;
48052;SDS011;33824;51.600;5.718;2023-06-05T03:27:35;10.30;;;3.22;;
48052;SDS011;33824;51.600;5.718;2023-06-05T03:30:01;8.50;;;3.00;;
48052;SDS011;33824;51.600;5.718;2023-06-05T03:32:27;4.30;;;2.50;;
48052;SDS011;33824;51.600;5.718;2023-06-05T03:34:52;4.68;;;2.50;;
48052;SDS011;33824;51.600;5.718;2023-06-05T03:37:18;3.50;;;2.17;;
48052;SDS011;33824;51.600;5.718;2023-06-05T03:39:44;5.18;;;2.53;;
48052;SDS011;33824;51.600;5.718;2023-06-05T03:42:09;4.72;;;2.30;;
48052;SDS011;33824;51.600;5.718;2023-06-05T03:44:36;4.75;;;3.05;;
48052;SDS011;33824;51.600;5.718;2023-06-05T03:47:03;6.03;;;2.80;;
48052;SDS011;33824;51.600;5.718;2023-06-05T03:49:28;7.70;;;2.78;;
48052;SDS011;33824;51.600;5.718;2023-06-05T03:51:55;6.25;;;2.80;;
48052;SDS011;33824;51.600;5.718;2023-06-05T03:54:29;7.82;;;3.30;;
48052;SDS011;33824;51.600;5.718;2023-06-05T03:59:25;5.22;;;2.92;;
48052;SDS011;33824;51.600;5.718;2023-06-05T04:01:55;5.43;;;2.92;;
48052;SDS011;33824;51.600;5.718;2023-06-05T04:04:20;8.50;;;3.10;;
48052;SDS011;33824;51.600;5.718;2023-06-05T04:06:46;6.20;;;3.30;;
48052;SDS011;33824;51.600;5.718;2023-06-05T04:09:12;5.88;;;3.13;;
48052;SDS011;33824;51.600;5.718;2023-06-05T04:11:42;9.68;;;3.05;;
48052;SDS011;33824;51.600;5.718;2023-06-05T04:14:08;9.57;;;3.15;;
48052;SDS011;33824;51.600;5.718;2023-06-05T04:16:36;6.72;;;3.10;;
48052;SDS011;33824;51.600;5.718;2023-06-05T04:21:35;6.65;;;2.95;;
48052;SDS011;33824;51.600;5.718;2023-06-05T04:24:05;7.15;;;3.50;;
48052;SDS011;33824;51.600;5.718;2023-06-05T04:26:34;6.28;;;2.90;;
48052;SDS011;33824;51.600;5.718;2023-06-05T04:29:00;6.13;;;3.28;;
48052;SDS011;33824;51.600;5.718;2023-06-05T04:31:30;4.78;;;3.08;;
48052;SDS011;33824;51.600;5.718;2023-06-05T04:33:56;9.05;;;3.30;;
48052;SDS011;33824;51.600;5.718;2023-06-05T04:36:22;9.15;;;4.10;;
48052;SDS011;33824;51.600;5.718;2023-06-05T04:38:48;5.63;;;3.40;;
48052;SDS011;33824;51.600;5.718;2023-06-05T04:41:14;43.17;;;6.95;;
48052;SDS011;33824;51.600;5.718;2023-06-05T04:43:39;5.63;;;3.53;;
48052;SDS011;33824;51.600;5.718;2023-06-05T04:46:05;6.53;;;3.35;;
48052;SDS011;33824;51.600;5.718;2023-06-05T04:48:31;7.38;;;3.00;;
48052;SDS011;33824;51.600;5.718;2023-06-05T04:50:56;7.22;;;3.38;;
48052;SDS011;33824;51.600;5.718;2023-06-05T04:53:22;6.13;;;3.70;;
48052;SDS011;33824;51.600;5.718;2023-06-05T04:55:48;8.60;;;3.38;;
48052;SDS011;33824;51.600;5.718;2023-06-05T04:58:13;8.55;;;3.45;;
48052;SDS011;33824;51.600;5.718;2023-06-05T05:00:41;10.10;;;3.85;;
48052;SDS011;33824;51.600;5.718;2023-06-05T05:03:09;9.15;;;3.15;;
48052;SDS011;33824;51.600;5.718;2023-06-05T05:05:38;5.13;;;2.92;;
48052;SDS011;33824;51.600;5.718;2023-06-05T05:08:04;7.03;;;3.05;;
48052;SDS011;33824;51.600;5.718;2023-06-05T05:10:31;6.65;;;2.92;;
48052;SDS011;33824;51.600;5.718;2023-06-05T05:12:57;10.63;;;3.58;;
48052;SDS011;33824;51.600;5.718;2023-06-05T05:15:27;6.25;;;3.75;;
48052;SDS011;33824;51.600;5.718;2023-06-05T05:17:54;6.00;;;3.15;;
48052;SDS011;33824;51.600;5.718;2023-06-05T05:20:21;5.75;;;2.60;;
48052;SDS011;33824;51.600;5.718;2023-06-05T05:22:47;5.40;;;2.80;;
48052;SDS011;33824;51.600;5.718;2023-06-05T05:25:13;6.07;;;3.35;;
48052;SDS011;33824;51.600;5.718;2023-06-05T05:27:39;7.30;;;4.03;;
48052;SDS011;33824;51.600;5.718;2023-06-05T05:30:06;6.35;;;3.63;;
48052;SDS011;33824;51.600;5.718;2023-06-05T05:32:32;10.88;;;3.72;;
48052;SDS011;33824;51.600;5.718;2023-06-05T05:34:58;6.75;;;2.97;;
48052;SDS011;33824;51.600;5.718;2023-06-05T05:37:23;6.45;;;3.38;;
48052;SDS011;33824;51.600;5.718;2023-06-05T05:39:51;8.15;;;3.65;;
48052;SDS011;33824;51.600;5.718;2023-06-05T05:42:17;7.88;;;3.83;;
48052;SDS011;33824;51.600;5.718;2023-06-05T05:44:43;4.47;;;2.38;;
48052;SDS011;33824;51.600;5.718;2023-06-05T05:47:09;6.70;;;3.45;;
48052;SDS011;33824;51.600;5.718;2023-06-05T05:49:36;6.32;;;3.50;;
48052;SDS011;33824;51.600;5.718;2023-06-05T05:52:02;11.90;;;4.07;;
48052;SDS011;33824;51.600;5.718;2023-06-05T05:54:28;7.47;;;3.50;;
48052;SDS011;33824;51.600;5.718;2023-06-05T05:56:53;6.53;;;3.60;;
48052;SDS011;33824;51.600;5.718;2023-06-05T05:59:20;6.53;;;3.13;;
48052;SDS011;33824;51.600;5.718;2023-06-05T06:01:47;9.10;;;4.10;;
48052;SDS011;33824;51.600;5.718;2023-06-05T06:04:15;6.95;;;3.72;;
48052;SDS011;33824;51.600;5.718;2023-06-05T06:06:41;8.38;;;3.40;;
48052;SDS011;33824;51.600;5.718;2023-06-05T06:09:07;10.23;;;3.90;;
48052;SDS011;33824;51.600;5.718;2023-06-05T06:11:35;5.75;;;3.40;;
48052;SDS011;33824;51.600;5.718;2023-06-05T06:14:01;6.22;;;3.42;;
48052;SDS011;33824;51.600;5.718;2023-06-05T06:16:27;6.07;;;3.63;;
48052;SDS011;33824;51.600;5.718;2023-06-05T06:18:53;6.63;;;3.55;;
48052;SDS011;33824;51.600;5.718;2023-06-05T06:21:20;7.45;;;3.47;;
48052;SDS011;33824;51.600;5.718;2023-06-05T06:23:46;5.18;;;3.25;;
48052;SDS011;33824;51.600;5.718;2023-06-05T06:26:12;6.00;;;3.38;;
48052;SDS011;33824;51.600;5.718;2023-06-05T06:28:40;7.05;;;3.92;;
48052;SDS011;33824;51.600;5.718;2023-06-05T06:31:06;8.68;;;3.22;;
48052;SDS011;33824;51.600;5.718;2023-06-05T06:33:32;10.05;;;3.88;;
48052;SDS011;33824;51.600;5.718;2023-06-05T06:35:58;9.50;;;3.35;;
48052;SDS011;33824;51.600;5.718;2023-06-05T06:38:27;9.25;;;3.80;;
48052;SDS011;33824;51.600;5.718;2023-06-05T06:40:56;6.40;;;3.50;;
48052;SDS011;33824;51.600;5.718;2023-06-05T06:43:25;5.95;;;3.25;;
48052;SDS011;33824;51.600;5.718;2023-06-05T06:45:52;8.07;;;3.10;;
48052;SDS011;33824;51.600;5.718;2023-06-05T06:48:17;5.72;;;3.00;;
48052;SDS011;33824;51.600;5.718;2023-06-05T06:50:44;4.45;;;2.42;;
48052;SDS011;33824;51.600;5.718;2023-06-05T06:53:09;5.13;;;2.60;;
48052;SDS011;33824;51.600;5.718;2023-06-05T06:55:35;8.35;;;3.50;;
48052;SDS011;33824;51.600;5.718;2023-06-05T06:58:00;5.55;;;2.53;;
48052;SDS011;33824;51.600;5.718;2023-06-05T07:00:26;5.93;;;3.42;;
48052;SDS011;33824;51.600;5.718;2023-06-05T07:02:52;5.20;;;3.13;;
48052;SDS011;33824;51.600;5.718;2023-06-05T07:05:17;5.88;;;3.42;;
48052;SDS011;33824;51.600;5.718;2023-06-05T07:07:45;6.43;;;3.78;;
48052;SDS011;33824;51.600;5.718;2023-06-05T07:10:13;6.57;;;3.13;;
48052;SDS011;33824;51.600;5.718;2023-06-05T07:12:39;8.32;;;3.80;;
48052;SDS011;33824;51.600;5.718;2023-06-05T07:15:04;5.65;;;3.38;;
48052;SDS011;33824;51.600;5.718;2023-06-05T07:17:31;8.32;;;3.78;;
48052;SDS011;33824;51.600;5.718;2023-06-05T07:19:56;6.97;;;3.50;;
48052;SDS011;33824;51.600;5.718;2023-06-05T07:22:22;7.38;;;3.58;;
48052;SDS011;33824;51.600;5.718;2023-06-05T07:24:50;8.30;;;3.38;;
48052;SDS011;33824;51.600;5.718;2023-06-05T07:27:15;10.90;;;3.25;;
48052;SDS011;33824;51.600;5.718;2023-06-05T07:29:41;5.72;;;2.85;;
48052;SDS011;33824;51.600;5.718;2023-06-05T07:32:07;6.35;;;3.03;;
48052;SDS011;33824;51.600;5.718;2023-06-05T07:34:33;6.82;;;3.30;;
48052;SDS011;33824;51.600;5.718;2023-06-05T07:36:59;5.13;;;3.10;;
48052;SDS011;33824;51.600;5.718;2023-06-05T07:39:26;6.53;;;2.97;;
48052;SDS011;33824;51.600;5.718;2023-06-05T07:41:51;6.03;;;2.70;;
48052;SDS011;33824;51.600;5.718;2023-06-05T07:44:19;6.97;;;3.28;;
48052;SDS011;33824;51.600;5.718;2023-06-05T07:46:47;7.22;;;2.63;;
48052;SDS011;33824;51.600;5.718;2023-06-05T07:49:13;6.18;;;3.20;;
48052;SDS011;33824;51.600;5.718;2023-06-05T07:51:41;8.23;;;3.10;;
48052;SDS011;33824;51.600;5.718;2023-06-05T07:54:09;8.65;;;3.92;;
48052;SDS011;33824;51.600;5.718;2023-06-05T07:56:36;7.90;;;3.45;;
48052;SDS011;33824;51.600;5.718;2023-06-05T07:59:03;8.70;;;3.10;;
48052;SDS011;33824;51.600;5.718;2023-06-05T08:01:30;3.92;;;2.53;;
48052;SDS011;33824;51.600;5.718;2023-06-05T08:03:56;12.18;;;3.45;;
48052;SDS011;33824;51.600;5.718;2023-06-05T08:06:23;7.15;;;3.63;;
48052;SDS011;33824;51.600;5.718;2023-06-05T08:08:49;5.72;;;3.38;;
48052;SDS011;33824;51.600;5.718;2023-06-05T08:11:18;6.53;;;3.70;;
48052;SDS011;33824;51.600;5.718;2023-06-05T08:13:43;9.50;;;3.92;;
48052;SDS011;33824;51.600;5.718;2023-06-05T08:16:09;7.82;;;4.35;;
48052;SDS011;33824;51.600;5.718;2023-06-05T08:18:34;9.32;;;4.28;;
48052;SDS011;33824;51.600;5.718;2023-06-05T08:21:00;8.10;;;3.70;;
48052;SDS011;33824;51.600;5.718;2023-06-05T08:23:27;8.32;;;3.40;;
48052;SDS011;33824;51.600;5.718;2023-06-05T08:25:53;7.78;;;3.50;;
48052;SDS011;33824;51.600;5.718;2023-06-05T08:28:19;7.68;;;3.40;;
48052;SDS011;33824;51.600;5.718;2023-06-05T08:30:45;6.45;;;3.38;;
48052;SDS011;33824;51.600;5.718;2023-06-05T08:33:10;5.78;;;3.63;;
48052;SDS011;33824;51.600;5.718;2023-06-05T08:35:36;9.80;;;4.03;;
48052;SDS011;33824;51.600;5.718;2023-06-05T08:38:04;8.88;;;3.25;;
48052;SDS011;33824;51.600;5.718;2023-06-05T08:40:30;9.82;;;3.92;;
48052;SDS011;33824;51.600;5.718;2023-06-05T08:42:56;4.90;;;3.05;;
48052;SDS011;33824;51.600;5.718;2023-06-05T08:45:22;7.53;;;2.90;;
48052;SDS011;33824;51.600;5.718;2023-06-05T08:47:50;6.78;;;3.05;;
48052;SDS011;33824;51.600;5.718;2023-06-05T08:50:17;8.30;;;3.88;;
48052;SDS011;33824;51.600;5.718;2023-06-05T08:52:43;11.63;;;3.95;;
48052;SDS011;33824;51.600;5.718;2023-06-05T08:55:11;5.80;;;3.45;;
48052;SDS011;33824;51.600;5.718;2023-06-05T08:57:41;8.20;;;3.70;;
48052;SDS011;33824;51.600;5.718;2023-06-05T09:00:07;13.77;;;4.38;;
48052;SDS011;33824;51.600;5.718;2023-06-05T09:02:36;9.45;;;3.33;;
48052;SDS011;33824;51.600;5.718;2023-06-05T09:05:03;7.38;;;3.28;;
48052;SDS011;33824;51.600;5.718;2023-06-05T09:07:29;5.75;;;3.25;;
48052;SDS011;33824;51.600;5.718;2023-06-05T09:09:57;8.27;;;3.08;;
48052;SDS011;33824;51.600;5.718;2023-06-05T09:12:22;6.43;;;3.35;;
48052;SDS011;33824;51.600;5.718;2023-06-05T09:14:50;5.22;;;3.05;;
48052;SDS011;33824;51.600;5.718;2023-06-05T09:17:15;7.38;;;3.97;;
48052;SDS011;33824;51.600;5.718;2023-06-05T09:19:42;9.70;;;3.25;;
48052;SDS011;33824;51.600;5.718;2023-06-05T09:22:08;6.47;;;3.67;;
48052;SDS011;33824;51.600;5.718;2023-06-05T09:24:36;13.23;;;4.00;;
48052;SDS011;33824;51.600;5.718;2023-06-05T09:27:03;11.82;;;3.65;;
48052;SDS011;33824;51.600;5.718;2023-06-05T09:29:35;7.50;;;3.22;;
48052;SDS011;33824;51.600;5.718;2023-06-05T09:32:03;7.55;;;3.47;;
48052;SDS011;33824;51.600;5.718;2023-06-05T09:34:30;7.78;;;2.83;;
48052;SDS011;33824;51.600;5.718;2023-06-05T09:36:58;6.68;;;3.35;;
48052;SDS011;33824;51.600;5.718;2023-06-05T09:39:27;6.20;;;2.65;;
48052;SDS011;33824;51.600;5.718;2023-06-05T09:41:57;7.15;;;3.40;;
48052;SDS011;33824;51.600;5.718;2023-06-05T09:44:24;5.82;;;3.25;;
48052;SDS011;33824;51.600;5.718;2023-06-05T09:49:21;8.48;;;3.50;;
48052;SDS011;33824;51.600;5.718;2023-06-05T09:51:49;6.38;;;3.00;;
48052;SDS011;33824;51.600;5.718;2023-06-05T09:54:15;4.50;;;2.50;;
48052;SDS011;33824;51.600;5.718;2023-06-05T09:56:41;5.10;;;2.60;;
48052;SDS011;33824;51.600;5.718;2023-06-05T09:59:08;5.95;;;3.15;;
48052;SDS011;33824;51.600;5.718;2023-06-05T10:01:41;8.85;;;3.78;;
48052;SDS011;33824;51.600;5.718;2023-06-05T10:04:09;5.88;;;2.20;;
48052;SDS011;33824;51.600;5.718;2023-06-05T10:06:36;6.78;;;2.53;;
48052;SDS011;33824;51.600;5.718;2023-06-05T10:09:03;7.15;;;2.88;;
48052;SDS011;33824;51.600;5.718;2023-06-05T10:11:29;5.30;;;2.75;;
48052;SDS011;33824;51.600;5.718;2023-06-05T10:13:55;5.82;;;2.60;;
48052;SDS011;33824;51.600;5.718;2023-06-05T10:16:28;4.90;;;2.65;;
48052;SDS011;33824;51.600;5.718;2023-06-05T10:18:55;6.97;;;2.90;;
48052;SDS011;33824;51.600;5.718;2023-06-05T10:21:24;4.75;;;2.55;;
48052;SDS011;33824;51.600;5.718;2023-06-05T10:23:55;4.93;;;2.70;;
48052;SDS011;33824;51.600;5.718;2023-06-05T10:29:06;5.72;;;3.40;;
48052;SDS011;33824;51.600;5.718;2023-06-05T10:31:47;5.07;;;2.38;;
48052;SDS011;33824;51.600;5.718;2023-06-05T10:37:24;4.63;;;2.65;;
48052;SDS011;33824;51.600;5.718;2023-06-05T10:40:00;6.45;;;2.20;;
48052;SDS011;33824;51.600;5.718;2023-06-05T10:42:26;4.60;;;2.58;;
48052;SDS011;33824;51.600;5.718;2023-06-05T10:44:52;5.05;;;2.65;;
48052;SDS011;33824;51.600;5.718;2023-06-05T10:52:47;6.47;;;2.63;;
48052;SDS011;33824;51.600;5.718;2023-06-05T10:55:14;5.38;;;2.13;;
48052;SDS011;33824;51.600;5.718;2023-06-05T11:00:27;5.03;;;2.47;;
48052;SDS011;33824;51.600;5.718;2023-06-05T11:02:53;5.10;;;2.40;;
48052;SDS011;33824;51.600;5.718;2023-06-05T11:05:19;4.95;;;2.85;;
48052;SDS011;33824;51.600;5.718;2023-06-05T11:07:45;6.15;;;2.25;;
48052;SDS011;33824;51.600;5.718;2023-06-05T11:10:12;3.33;;;2.10;;
48052;SDS011;33824;51.600;5.718;2023-06-05T11:17:51;3.97;;;2.10;;
48052;SDS011;33824;51.600;5.718;2023-06-05T11:30:15;4.57;;;2.10;;
48052;SDS011;33824;51.600;5.718;2023-06-05T11:32:43;6.30;;;2.15;;
48052;SDS011;33824;51.600;5.718;2023-06-05T11:35:09;8.55;;;2.13;;
48052;SDS011;33824;51.600;5.718;2023-06-05T11:37:35;3.13;;;2.33;;
48052;SDS011;33824;51.600;5.718;2023-06-05T11:40:06;5.75;;;2.95;;
48052;SDS011;33824;51.600;5.718;2023-06-05T11:42:35;4.82;;;2.30;;
48052;SDS011;33824;51.600;5.718;2023-06-05T11:45:09;5.85;;;2.60;;
48052;SDS011;33824;51.600;5.718;2023-06-05T11:47:36;3.72;;;2.08;;
48052;SDS011;33824;51.600;5.718;2023-06-05T11:50:11;3.40;;;1.90;;
48052;SDS011;33824;51.600;5.718;2023-06-05T11:52:38;4.30;;;2.05;;
48052;SDS011;33824;51.600;5.718;2023-06-05T11:57:41;4.55;;;2.30;;
48052;SDS011;33824;51.600;5.718;2023-06-05T12:00:11;2.85;;;1.33;;
48052;SDS011;33824;51.600;5.718;2023-06-05T12:02:38;2.45;;;1.63;;
48052;SDS011;33824;51.600;5.718;2023-06-05T12:05:07;2.70;;;1.50;;
48052;SDS011;33824;51.600;5.718;2023-06-05T12:07:34;3.75;;;1.90;;
48052;SDS011;33824;51.600;5.718;2023-06-05T12:10:05;3.90;;;2.17;;
48052;SDS011;33824;51.600;5.718;2023-06-05T12:12:35;3.22;;;1.60;;
48052;SDS011;33824;51.600;5.718;2023-06-05T12:15:15;3.95;;;1.98;;
48052;SDS011;33824;51.600;5.718;2023-06-05T12:17:48;3.95;;;1.63;;
48052;SDS011;33824;51.600;5.718;2023-06-05T12:20:15;3.15;;;1.67;;
48052;SDS011;33824;51.600;5.718;2023-06-05T12:22:40;3.45;;;1.70;;
48052;SDS011;33824;51.600;5.718;2023-06-05T12:27:45;4.32;;;1.65;;
48052;SDS011;33824;51.600;5.718;2023-06-05T12:30:11;2.88;;;1.38;;
48052;SDS011;33824;51.600;5.718;2023-06-05T12:32:38;2.33;;;1.33;;
48052;SDS011;33824;51.600;5.718;2023-06-05T12:35:22;2.67;;;1.02;;
48052;SDS011;33824;51.600;5.718;2023-06-05T12:37:48;3.15;;;1.48;;
48052;SDS011;33824;51.600;5.718;2023-06-05T12:40:15;3.47;;;1.65;;
48052;SDS011;33824;51.600;5.718;2023-06-05T12:42:46;3.97;;;1.67;;
48052;SDS011;33824;51.600;5.718;2023-06-05T12:45:13;2.72;;;1.63;;
48052;SDS011;33824;51.600;5.718;2023-06-05T12:47:39;3.38;;;1.70;;
48052;SDS011;33824;51.600;5.718;2023-06-05T12:50:06;5.15;;;1.88;;
48052;SDS011;33824;51.600;5.718;2023-06-05T12:52:36;3.35;;;1.70;;
48052;SDS011;33824;51.600;5.718;2023-06-05T12:55:02;2.25;;;1.45;;
48052;SDS011;33824;51.600;5.718;2023-06-05T12:57:28;2.50;;;1.15;;
48052;SDS011;33824;51.600;5.718;2023-06-05T12:59:54;2.22;;;1.20;;
48052;SDS011;33824;51.600;5.718;2023-06-05T13:02:20;1.80;;;1.20;;
48052;SDS011;33824;51.600;5.718;2023-06-05T13:04:46;1.95;;;0.90;;
48052;SDS011;33824;51.600;5.718;2023-06-05T13:07:12;1.70;;;1.30;;
48052;SDS011;33824;51.600;5.718;2023-06-05T13:09:38;2.40;;;1.23;;
48052;SDS011;33824;51.600;5.718;2023-06-05T13:12:03;3.58;;;1.33;;
48052;SDS011;33824;51.600;5.718;2023-06-05T13:14:30;2.83;;;1.42;;
48052;SDS011;33824;51.600;5.718;2023-06-05T13:16:56;1.90;;;0.93;;
48052;SDS011;33824;51.600;5.718;2023-06-05T13:19:22;3.72;;;1.30;;
48052;SDS011;33824;51.600;5.718;2023-06-05T13:21:48;1.15;;;0.98;;
48052;SDS011;33824;51.600;5.718;2023-06-05T13:24:14;3.85;;;1.30;;
48052;SDS011;33824;51.600;5.718;2023-06-05T13:26:42;1.33;;;0.82;;
48052;SDS011;33824;51.600;5.718;2023-06-05T13:29:08;1.65;;;1.00;;
48052;SDS011;33824;51.600;5.718;2023-06-05T13:31:34;1.60;;;0.90;;
48052;SDS011;33824;51.600;5.718;2023-06-05T13:34:01;2.47;;;1.25;;
48052;SDS011;33824;51.600;5.718;2023-06-05T13:36:26;4.43;;;1.27;;
48052;SDS011;33824;51.600;5.718;2023-06-05T13:38:52;2.88;;;1.40;;
48052;SDS011;33824;51.600;5.718;2023-06-05T13:41:18;3.53;;;1.30;;
48052;SDS011;33824;51.600;5.718;2023-06-05T13:43:44;3.65;;;1.10;;
48052;SDS011;33824;51.600;5.718;2023-06-05T13:46:10;1.80;;;0.93;;
48052;SDS011;33824;51.600;5.718;2023-06-05T13:48:36;1.95;;;0.80;;
48052;SDS011;33824;51.600;5.718;2023-06-05T13:51:02;1.58;;;0.82;;
48052;SDS011;33824;51.600;5.718;2023-06-05T13:53:29;3.78;;;1.10;;
48052;SDS011;33824;51.600;5.718;2023-06-05T13:56:05;1.20;;;0.80;;
48052;SDS011;33824;51.600;5.718;2023-06-05T13:58:31;1.85;;;1.00;;
48052;SDS011;33824;51.600;5.718;2023-06-05T14:00:57;1.52;;;1.08;;
48052;SDS011;33824;51.600;5.718;2023-06-05T14:03:24;2.33;;;0.90;;
48052;SDS011;33824;51.600;5.718;2023-06-05T14:05:49;1.80;;;1.02;;
48052;SDS011;33824;51.600;5.718;2023-06-05T14:08:15;3.08;;;1.50;;
48052;SDS011;33824;51.600;5.718;2023-06-05T14:10:41;4.25;;;1.42;;
48052;SDS011;33824;51.600;5.718;2023-06-05T14:13:07;2.00;;;1.02;;
48052;SDS011;33824;51.600;5.718;2023-06-05T14:15:32;2.10;;;1.02;;
48052;SDS011;33824;51.600;5.718;2023-06-05T14:18:00;3.33;;;0.98;;
48052;SDS011;33824;51.600;5.718;2023-06-05T14:20:27;2.28;;;1.02;;
48052;SDS011;33824;51.600;5.718;2023-06-05T14:22:55;2.65;;;1.10;;
48052;SDS011;33824;51.600;5.718;2023-06-05T14:25:22;1.70;;;0.98;;
48052;SDS011;33824;51.600;5.718;2023-06-05T14:27:49;1.95;;;0.90;;
48052;SDS011;33824;51.600;5.718;2023-06-05T14:30:15;2.35;;;0.93;;
48052;SDS011;33824;51.600;5.718;2023-06-05T14:32:41;1.85;;;0.93;;
48052;SDS011;33824;51.600;5.718;2023-06-05T14:35:07;6.13;;;1.15;;
48052;SDS011;33824;51.600;5.718;2023-06-05T14:37:33;2.60;;;1.38;;
48052;SDS011;33824;51.600;5.718;2023-06-05T14:39:58;2.67;;;0.95;;
48052;SDS011;33824;51.600;5.718;2023-06-05T14:42:24;2.28;;;0.93;;
48052;SDS011;33824;51.600;5.718;2023-06-05T14:44:49;1.88;;;1.35;;
48052;SDS011;33824;51.600;5.718;2023-06-05T14:47:15;1.88;;;1.15;;
48052;SDS011;33824;51.600;5.718;2023-06-05T14:49:40;1.98;;;0.90;;
48052;SDS011;33824;51.600;5.718;2023-06-05T14:52:06;3.42;;;1.20;;
48052;SDS011;33824;51.600;5.718;2023-06-05T14:54:32;4.05;;;1.20;;
48052;SDS011;33824;51.600;5.718;2023-06-05T14:56:57;1.60;;;1.00;;
48052;SDS011;33824;51.600;5.718;2023-06-05T14:59:23;3.13;;;1.17;;
48052;SDS011;33824;51.600;5.718;2023-06-05T15:01:48;3.40;;;1.02;;
48052;SDS011;33824;51.600;5.718;2023-06-05T15:04:14;2.28;;;0.93;;
48052;SDS011;33824;51.600;5.718;2023-06-05T15:06:40;3.55;;;0.82;;
48052;SDS011;33824;51.600;5.718;2023-06-05T15:09:05;1.45;;;0.93;;
48052;SDS011;33824;51.600;5.718;2023-06-05T15:11:31;2.15;;;1.00;;
48052;SDS011;33824;51.600;5.718;2023-06-05T15:13:57;2.22;;;1.13;;
48052;SDS011;33824;51.600;5.718;2023-06-05T15:16:23;6.40;;;1.27;;
48052;SDS011;33824;51.600;5.718;2023-06-05T15:18:49;1.90;;;0.82;;
48052;SDS011;33824;51.600;5.718;2023-06-05T15:21:15;5.38;;;1.30;;
48052;SDS011;33824;51.600;5.718;2023-06-05T15:23:41;9.00;;;1.10;;
48052;SDS011;33824;51.600;5.718;2023-06-05T15:26:07;3.58;;;1.75;;
48052;SDS011;33824;51.600;5.718;2023-06-05T15:28:32;2.05;;;1.00;;
48052;SDS011;33824;51.600;5.718;2023-06-05T15:30:58;2.60;;;1.10;;
48052;SDS011;33824;51.600;5.718;2023-06-05T15:33:23;2.28;;;1.02;;